ADDS METAR Data INFO
IDs: Format: Raw Decoded Include TAF

Data at: 1718 UTC 23 Oct 2017

KANJ 231708Z AUTO 11005KT 10SM FEW009 OVC070 11/08 A2983 RMK AO2 T01110083
KANJ 231655Z AUTO 12004KT 10SM BKN009 OVC080 11/09 A2984 RMK AO2 CIG 007V011 SLP104 T01110089
KANJ 231625Z AUTO 10003KT 10SM BKN009 11/09 A2985 RMK AO2 T01110089
KANJ 231555Z AUTO 08003KT 10SM OVC010 11/09 A2985 RMK AO2 CIG 005V012 SLP110 T01110094
KANJ 231513Z AUTO VRB03KT 10SM BKN005 11/09 A2988 RMK AO2 CIG 003V008 T01060094
KANJ 231502Z AUTO 00000KT 10SM SCT003 SCT023 11/09 A2988 RMK AO2 T01060094
KANJ 231455Z AUTO 12003KT 10SM SCT023 11/09 A2988 RMK AO2 SLP120 T01060094 58017
KANJ 231355Z AUTO 13004KT 10SM OVC023 10/09 A2990 RMK AO2 SLP126 T01000089
KANJ 231303Z AUTO 15003KT 10SM BKN023 OVC110 10/09 A2993 RMK AO2 T01000089
KANJ 231255Z AUTO 00000KT 10SM SCT023 OVC110 10/09 A2993 RMK AO2 SLP136 T01000089
KANJ 231224Z AUTO 15003KT 10SM SCT027 SCT032 10/09 A2994 RMK AO2 T01000089
KANJ 231207Z AUTO 17003KT 10SM BKN029 BKN095 OVC120 10/09 A2994 RMK AO2 T01000089
KANJ 231155Z AUTO 16003KT 10SM SCT029 BKN100 OVC110 10/09 A2993 RMK AO2 SLP137 60011 70083 T01000089 10111 20100 55007
KANJ 231055Z AUTO 00000KT 10SM FEW001 BKN120 10/09 A2993 RMK AO2 RAE24 SLP136 P0001 T01000094
KANJ 231027Z AUTO 00000KT 10SM FEW002 OVC100 10/09 A2995 RMK AO2 RAE24 P0001 T01000094
KANJ 230955Z AUTO 00000KT 10SM -RA OVC090 10/09 A2995 RMK AO2 SLP143 P0002 T01000094
KANJ 230855Z AUTO 00000KT 10SM -RA OVC100 10/09 A2995 RMK AO2 SLP144 P0001 60008 T01000094 58004
KANJ 230755Z AUTO 27004KT 8SM -RA FEW011 BKN090 11/09 A2996 RMK AO2 SLP145 P0003 T01060094
KANJ 230741Z AUTO 27004KT 10SM -RA BKN012 BKN041 OVC095 11/09 A2996 RMK AO2 P0002 T01060094
KANJ 230729Z AUTO 27004KT 9SM -RA BKN009 OVC100 11/09 A2997 RMK AO2 P0002 T01060094
KANJ 230655Z AUTO 29006KT 10SM -RA FEW009 BKN033 OVC100 11/10 A2997 RMK AO2 SLP145 P0004 T01110100
KANJ 230630Z AUTO 28004KT 7SM -RA FEW009 BKN031 OVC100 11/10 A2997 RMK AO2 P0003 T01110100
KANJ 230555Z AUTO 27005KT 8SM -RA FEW029 OVC100 11/10 A2997 RMK AO2 SLP147 P0002 60026 T01110100 10111 20106 51000
KANJ 230455Z AUTO 29006KT 10SM -RA OVC100 11/10 A2997 RMK AO2 RAB07 SLP145 P0001 T01110100 402110106
KANJ 230355Z AUTO 26004KT 10SM SCT046 BKN065 OVC095 11/10 A2997 RMK AO2 RAE55 SLP147 P0003 T01060100
KANJ 230302Z AUTO 26004KT 7SM -RA SCT007 SCT012 OVC070 11/10 A2996 RMK AO2 P0000 T01060100
KANJ 230255Z AUTO 00000KT 6SM -RA BR BKN007 BKN012 OVC070 11/10 A2997 RMK AO2 SLP146 P0006 60020 T01060100 53003
KANJ 230234Z AUTO 24003KT 5SM -RA BR BKN007 BKN012 OVC070 11/10 A2997 RMK AO2 P0005 T01060100
KANJ 230226Z AUTO 28003KT 5SM -RA BR SCT007 BKN012 OVC075 11/10 A2996 RMK AO2 P0004 T01060100
KANJ 230155Z AUTO 24004KT 3SM RA BR OVC060 11/09 A2997 RMK AO2 SLP147 P0009 T01060094
KANJ 230055Z AUTO VRB04KT 10SM -RA OVC049 11/10 A2995 RMK AO2 SLP142 P0005 T01110100
KANJ 230009Z AUTO 30005KT 3SM -RA BR FEW008 OVC036 11/10 A2997 RMK AO2 P0001 T01060100
KANJ 222355Z AUTO 31007KT 4SM -RA BR OVC036 11/09 A2996 RMK AO2 SLP144 P0009 60046 T01060094 10211 20106 53013
KANJ 222325Z AUTO 31008KT 5SM RA BR SCT011 SCT026 OVC035 11/09 A2995 RMK AO2 P0005 T01110094
KANJ 222306Z AUTO 31007G15KT 5SM RA BR SCT011 BKN025 OVC031 11/09 A2995 RMK AO2 P0001 T01110094
KANJ 222255Z AUTO 30007G17KT 4SM RA BR BKN012 BKN025 OVC031 11/09 A2995 RMK AO2 SLP140 P0007 T01110094
KANJ 222238Z AUTO 31009G16KT 10SM -RA FEW008 SCT012 OVC026 12/09 A2994 RMK AO2 PRESRR P0003 T01170094
KANJ 222226Z AUTO 32008KT 290V020 6SM -RA BR BKN008 OVC026 12/11 A2992 RMK AO2 P0003 T01170106
KANJ 222218Z AUTO 32007KT 2 1/2SM -RA BR BKN009 BKN018 OVC049 12/11 A2992 RMK AO2 P0002 T01170106
KANJ 222155Z AUTO 31010KT 4SM -RA BR FEW007 BKN018 OVC038 12/10 A2993 RMK AO2 SLP133 P0014 T01170100
KANJ 222143Z AUTO 32010KT 6SM -RA BR SCT007 BKN018 OVC046 12/10 A2993 RMK AO2 P0013 T01170100
KANJ 222129Z AUTO 31010G14KT 3SM RA BR BKN007 BKN013 OVC055 12/11 A2992 RMK AO2 P0012 T01220111
KANJ 222115Z AUTO 30010G18KT 2SM RA BR FEW007 BKN030 OVC060 12/11 A2993 RMK AO2 P0008 T01220111
KANJ 222055Z AUTO 31013G17KT 2SM RA BR FEW007 BKN023 OVC048 13/12 A2992 RMK AO2 WSHFT 2037 RAB20 SLP130 P0016 60016 T01330122 53003
KANJ 222045Z AUTO 31011G19KT 1 1/2SM +RA BR FEW007 BKN026 OVC050 16/14 A2992 RMK AO2 RAB20 PRESRR P0009 T01560139
KANJ 222034Z AUTO 27008KT 1 3/4SM +RA FEW031 BKN050 OVC075 18/15 A2990 RMK AO2 RAB20 P0003 T01830150
KANJ 221955Z AUTO 15008KT 10SM SCT050 BKN060 OVC085 21/13 A2986 RMK AO2 SLP108 T02110133
KANJ 221855Z AUTO 13009KT 10SM FEW080 BKN100 21/13 A2988 RMK AO2 SLP115 T02110128
KANJ 221755Z AUTO 13008KT 10SM BKN070 BKN090 BKN110 19/12 A2991 RMK AO2 SLP126 T01940122 10206 20150 58018
KANJ 221655Z AUTO 13011G17KT 10SM FEW065 21/13 A2993 RMK AO2 SLP131 T02060128
KANJ 221555Z AUTO 15011KT 10SM BKN060 BKN110 19/12 A2995 RMK AO2 SLP140 T01940122
KANJ 221455Z AUTO 13007KT 10SM OVC070 18/12 A2997 RMK AO2 SLP145 T01780117 50003
KANJ 221355Z AUTO 13008KT 10SM BKN050 17/12 A2997 RMK AO2 SLP148 T01670117
KANJ 221255Z AUTO 12008KT 10SM OVC050 16/11 A2997 RMK AO2 SLP148 T01610111
KANJ 221155Z AUTO 12007KT 10SM BKN042 15/11 A2996 RMK AO2 SLP143 T01500106 10156 20144 56015
KANJ 221055Z AUTO 12007KT 10SM FEW120 15/11 A2997 RMK AO2 SLP148 T01500106
KANJ 220955Z AUTO 12004KT 10SM BKN110 15/11 A2998 RMK AO2 SLP151 T01500106
KANJ 220855Z AUTO 10004KT 10SM OVC095 16/10 A3000 RMK AO2 SLP157 T01560100 58005
KANJ 220755Z AUTO 11004KT 10SM FEW085 SCT110 16/10 A3002 RMK AO2 SLP161 T01560100
KANJ 220655Z AUTO 10003KT 10SM FEW095 OVC120 16/11 A3002 RMK AO2 SLP163 T01560106
KANJ 220555Z AUTO 10005KT 10SM BKN090 OVC110 16/11 A3002 RMK AO2 SLP162 T01560106 10156 20144 53000